Time;durP1;ratioP1;P1;durP2;ratioP2;P2;SDS_P1;SDS_P2;PMS_P1;PMS_P2;Temp;Humidity;BMP_temperature;BMP_pressure;BME280_temperature;BME280_humidity;BME280_pressure;Samples;Min_cycle;Max_cycle;Signal;HPM_P1;HPM_P2
2024/01/29 00:01:49;;;;;;;1.30;1.20;;;10.00;91.70;;;;;;5075779;28;20533;-69
2024/01/29 00:04:17;;;;;;;1.80;1.30;;;10.00;91.60;;;;;;5073673;28;20560;-68
2024/01/29 00:06:44;;;;;;;2.90;1.60;;;9.90;91.80;;;;;;5074917;28;20452;-68
2024/01/29 00:09:11;;;;;;;3.20;1.97;;;9.80;93.30;;;;;;5080078;28;20469;-68
2024/01/29 00:11:38;;;;;;;2.23;1.10;;;9.60;93.30;;;;;;5081367;28;20981;-69
2024/01/29 00:14:05;;;;;;;1.77;1.37;;;9.50;94.10;;;;;;5076789;28;20485;-69
2024/01/29 00:16:32;;;;;;;1.67;1.53;;;9.40;94.40;;;;;;5079195;28;20478;-68
2024/01/29 00:19:00;;;;;;;1.50;1.40;;;9.30;95.10;;;;;;5079751;28;20508;-70
2024/01/29 00:21:28;;;;;;;3.53;1.73;;;9.10;95.40;;;;;;5076921;28;20952;-67
2024/01/29 00:23:55;;;;;;;1.77;1.27;;;9.10;95.10;;;;;;5075507;28;20453;-68
2024/01/29 00:26:22;;;;;;;2.30;1.43;;;9.10;95.40;;;;;;5075087;28;20482;-68
2024/01/29 00:28:49;;;;;;;3.33;1.50;;;9.00;95.70;;;;;;5074528;28;20481;-68
2024/01/29 00:31:16;;;;;;;2.63;1.37;;;9.00;95.80;;;;;;5073154;28;20469;-68
2024/01/29 00:33:43;;;;;;;1.50;1.40;;;8.90;94.50;;;;;;5076689;28;20545;-67
2024/01/29 00:36:10;;;;;;;2.30;1.70;;;9.00;95.50;;;;;;5075290;28;20478;-68
2024/01/29 00:38:38;;;;;;;1.77;1.63;;;8.90;95.80;;;;;;5078445;28;20484;-68
2024/01/29 00:41:05;;;;;;;3.47;1.37;;;8.90;95.30;;;;;;5079630;28;20458;-68
2024/01/29 00:43:32;;;;;;;1.73;1.50;;;9.00;94.20;;;;;;5077390;28;21236;-68
2024/01/29 00:45:59;;;;;;;2.70;1.70;;;9.00;94.10;;;;;;5070922;28;20478;-68
2024/01/29 00:48:26;;;;;;;3.00;1.30;;;9.00;94.50;;;;;;5077916;28;20424;-68
2024/01/29 00:50:52;;;;;;;2.53;1.40;;;9.20;94.10;;;;;;5078176;28;20979;-68
2024/01/29 00:53:25;;;;;;;3.10;2.13;;;9.20;95.30;;;;;;5079600;28;20461;-68
2024/01/29 00:55:53;;;;;;;1.90;1.10;;;9.10;94.90;;;;;;5077465;28;20479;-68
2024/01/29 00:58:20;;;;;;;3.20;2.30;;;9.10;94.20;;;;;;5074241;28;20476;-68
2024/01/29 01:00:48;;;;;;;2.03;1.43;;;9.00;94.20;;;;;;5077393;28;20496;-68
2024/01/29 01:03:15;;;;;;;5.43;1.50;;;9.10;94.60;;;;;;5074175;28;20462;-68
2024/01/29 01:05:42;;;;;;;3.43;1.80;;;9.10;94.10;;;;;;5071065;28;20986;-68
2024/01/29 01:08:08;;;;;;;2.23;1.37;;;9.00;95.00;;;;;;5081410;28;20439;-68
2024/01/29 01:10:35;;;;;;;1.90;1.20;;;9.00;94.50;;;;;;5078468;28;20462;-69
2024/01/29 01:13:04;;;;;;;2.20;1.63;;;9.00;95.10;;;;;;5077858;28;20484;-68
2024/01/29 01:15:30;;;;;;;1.30;1.10;;;8.90;95.60;;;;;;5069898;28;20978;-68
2024/01/29 01:17:57;;;;;;;2.23;1.40;;;8.90;95.90;;;;;;5073416;28;20460;-68
2024/01/29 01:20:24;;;;;;;1.53;1.17;;;8.90;95.20;;;;;;5076112;28;20784;-68
2024/01/29 01:22:51;;;;;;;3.20;1.20;;;8.90;95.40;;;;;;5062384;28;20499;-67
2024/01/29 01:25:18;;;;;;;1.63;1.40;;;8.90;95.80;;;;;;5079848;28;20459;-67
2024/01/29 01:27:45;;;;;;;1.40;1.30;;;8.80;96.20;;;;;;5077814;28;20546;-69
2024/01/29 01:30:13;;;;;;;4.43;1.97;;;8.80;96.20;;;;;;5074242;28;20461;-68
2024/01/29 01:32:40;;;;;;;1.40;1.20;;;8.80;96.20;;;;;;5077829;28;20432;-68
2024/01/29 01:35:07;;;;;;;1.73;1.30;;;8.90;95.80;;;;;;5074106;28;20465;-68
2024/01/29 01:37:34;;;;;;;2.07;1.70;;;9.00;96.20;;;;;;5076550;28;20466;-68
2024/01/29 01:40:01;;;;;;;2.80;1.33;;;8.90;96.90;;;;;;5070334;28;20515;-68
2024/01/29 01:42:27;;;;;;;1.50;1.17;;;8.90;95.80;;;;;;5067974;28;20848;-68
2024/01/29 01:44:54;;;;;;;1.47;1.23;;;8.90;95.80;;;;;;5078109;28;20463;-69
2024/01/29 01:47:22;;;;;;;1.70;1.47;;;8.80;96.60;;;;;;5073996;28;20451;-68
2024/01/29 01:49:50;;;;;;;3.20;1.70;;;8.80;96.50;;;;;;5071395;28;20435;-68
2024/01/29 01:52:18;;;;;;;3.20;1.20;;;8.70;97.60;;;;;;5071924;28;20520;-68
2024/01/29 01:54:45;;;;;;;1.70;1.30;;;8.50;98.30;;;;;;5075447;28;20485;-68
2024/01/29 01:59:48;;;;;;;1.77;1.43;;;8.30;99.30;;;;;;4843887;26;20577;-70
2024/01/29 02:02:15;;;;;;;2.00;1.40;;;8.20;99.40;;;;;;5009853;28;20441;-70
2024/01/29 02:04:44;;;;;;;3.37;1.40;;;8.10;99.90;;;;;;5009359;28;20804;-69
2024/01/29 02:07:10;;;;;;;4.90;1.20;;;8.00;99.90;;;;;;5023850;28;20449;-70
2024/01/29 02:09:40;;;;;;;1.50;1.30;;;8.10;99.90;;;;;;5025231;28;20430;-70
2024/01/29 02:12:08;;;;;;;2.20;1.60;;;8.00;99.90;;;;;;5031380;28;20459;-70
2024/01/29 02:14:35;;;;;;;2.70;1.37;;;7.80;99.90;;;;;;5025406;28;20480;-70
2024/01/29 02:17:04;;;;;;;3.30;1.43;;;7.80;99.90;;;;;;5023513;28;20501;-70
2024/01/29 02:19:32;;;;;;;1.73;1.50;;;7.70;99.90;;;;;;5024952;28;20465;-69
2024/01/29 02:22:01;;;;;;;1.63;1.20;;;7.70;99.90;;;;;;5021310;28;20459;-71
2024/01/29 02:24:29;;;;;;;2.10;1.63;;;7.60;99.90;;;;;;5026557;28;20949;-70
2024/01/29 02:26:55;;;;;;;3.73;1.40;;;7.50;99.90;;;;;;5031275;28;20461;-69
2024/01/29 02:29:22;;;;;;;7.03;1.40;;;7.50;99.90;;;;;;5024825;28;20478;-70
2024/01/29 02:31:49;;;;;;;2.40;2.20;;;7.40;99.90;;;;;;5020134;28;20969;-70
2024/01/29 02:34:16;;;;;;;2.07;1.50;;;7.30;99.90;;;;;;5027416;28;20454;-70
2024/01/29 02:36:44;;;;;;;2.27;1.10;;;7.20;99.90;;;;;;5029845;28;20482;-70
2024/01/29 02:39:11;;;;;;;4.43;1.73;;;7.10;99.90;;;;;;5030700;28;20462;-70
2024/01/29 02:41:40;;;;;;;3.00;1.60;;;7.00;99.90;;;;;;5030833;28;20422;-71
2024/01/29 02:44:09;;;;;;;5.03;1.83;;;7.10;99.90;;;;;;5028151;28;20455;-70
2024/01/29 02:46:39;;;;;;;6.03;1.80;;;7.00;99.90;;;;;;5029724;28;20453;-71
2024/01/29 02:49:06;;;;;;;3.40;2.23;;;6.90;99.90;;;;;;5032571;28;20463;-70
2024/01/29 02:51:32;;;;;;;4.20;1.00;;;6.90;99.90;;;;;;5032055;28;20545;-69
2024/01/29 02:53:59;;;;;;;1.87;1.57;;;6.90;99.90;;;;;;5032082;28;20434;-70
2024/01/29 02:56:26;;;;;;;2.37;2.10;;;6.90;99.90;;;;;;5030628;28;20978;-70
2024/01/29 02:58:54;;;;;;;1.77;1.57;;;6.80;99.90;;;;;;5033069;28;22551;-69
2024/01/29 03:01:21;;;;;;;3.20;1.43;;;6.70;99.90;;;;;;5029329;28;20478;-70
2024/01/29 03:03:48;;;;;;;2.47;2.00;;;6.70;99.90;;;;;;5029499;28;20462;-70
2024/01/29 03:06:14;;;;;;;1.97;1.77;;;6.70;99.90;;;;;;5033614;28;20592;-70
2024/01/29 03:08:42;;;;;;;2.30;1.27;;;6.80;99.90;;;;;;5031844;28;20438;-70
2024/01/29 03:11:09;;;;;;;1.80;1.20;;;6.80;99.90;;;;;;5036542;28;20434;-70
2024/01/29 03:13:36;;;;;;;3.90;2.47;;;6.80;99.90;;;;;;5034378;28;20474;-70
2024/01/29 03:16:05;;;;;;;1.30;1.20;;;6.80;99.90;;;;;;5032571;28;20847;-70
2024/01/29 03:18:31;;;;;;;3.60;2.83;;;6.80;99.90;;;;;;5030844;28;20463;-70
2024/01/29 03:20:59;;;;;;;1.60;1.43;;;6.90;99.90;;;;;;5036660;28;20474;-70
2024/01/29 03:23:25;;;;;;;2.50;1.40;;;6.90;99.90;;;;;;5036515;28;20585;-70
2024/01/29 03:25:52;;;;;;;2.63;1.30;;;6.80;99.90;;;;;;5034375;28;20916;-70
2024/01/29 03:28:19;;;;;;;2.33;2.13;;;6.90;99.90;;;;;;5032507;28;20467;-70
2024/01/29 03:30:45;;;;;;;1.80;1.20;;;6.90;99.90;;;;;;5032576;28;23855;-70
2024/01/29 03:33:13;;;;;;;1.40;1.07;;;7.00;99.90;;;;;;5035865;28;20466;-71
2024/01/29 03:35:40;;;;;;;2.17;1.30;;;7.10;99.90;;;;;;5034346;28;20853;-71
2024/01/29 03:38:07;;;;;;;1.50;1.37;;;7.10;99.90;;;;;;5036132;28;20471;-70
2024/01/29 03:40:34;;;;;;;3.20;1.73;;;7.10;99.90;;;;;;5034518;28;20886;-71
2024/01/29 03:43:00;;;;;;;7.13;1.60;;;7.00;99.90;;;;;;5024968;28;20446;-70
2024/01/29 03:45:30;;;;;;;2.37;1.53;;;6.80;99.90;;;;;;5033604;28;20442;-70
2024/01/29 03:47:57;;;;;;;11.73;1.60;;;6.60;99.90;;;;;;5028890;28;20630;-70
2024/01/29 03:50:25;;;;;;;3.00;1.90;;;6.60;99.90;;;;;;5036742;28;20439;-71
2024/01/29 03:52:51;;;;;;;2.53;1.80;;;6.60;99.90;;;;;;5030547;28;20453;-70
2024/01/29 03:55:18;;;;;;;4.23;1.50;;;6.60;99.90;;;;;;5036578;28;20483;-71
2024/01/29 03:57:45;;;;;;;2.70;1.80;;;6.50;99.90;;;;;;5030709;28;20467;-70
2024/01/29 04:00:12;;;;;;;4.20;1.63;;;6.60;99.90;;;;;;5038987;28;20442;-70
2024/01/29 04:02:39;;;;;;;1.80;1.43;;;6.60;99.90;;;;;;5033504;28;20434;-71
2024/01/29 04:05:09;;;;;;;2.10;1.90;;;6.50;99.90;;;;;;5017707;28;20473;-71
2024/01/29 04:07:37;;;;;;;4.10;2.33;;;6.50;99.90;;;;;;5028767;28;20463;-70
2024/01/29 04:10:04;;;;;;;2.67;1.73;;;6.50;99.90;;;;;;5030511;28;20455;-72
2024/01/29 04:12:31;;;;;;;5.13;1.37;;;6.40;99.90;;;;;;5031322;28;20467;-70
2024/01/29 04:14:59;;;;;;;2.47;1.73;;;6.40;99.90;;;;;;5034836;28;20491;-70
2024/01/29 04:17:26;;;;;;;1.63;1.53;;;6.30;99.90;;;;;;5032632;28;20459;-71
2024/01/29 04:19:53;;;;;;;2.40;1.60;;;6.30;99.90;;;;;;5034680;28;20438;-70
2024/01/29 04:22:19;;;;;;;3.00;2.30;;;6.30;99.90;;;;;;5036946;28;20449;-71
2024/01/29 04:24:50;;;;;;;2.80;1.70;;;6.20;99.90;;;;;;5021949;28;20470;-70
2024/01/29 04:27:17;;;;;;;2.10;1.50;;;6.20;99.90;;;;;;5033583;28;20433;-70
2024/01/29 04:29:43;;;;;;;5.50;3.13;;;6.30;99.90;;;;;;5028255;28;20433;-70
2024/01/29 04:32:10;;;;;;;3.03;1.70;;;6.20;99.90;;;;;;5030279;28;20503;-71
2024/01/29 04:34:37;;;;;;;2.23;1.73;;;6.10;99.90;;;;;;5038229;28;20455;-71
2024/01/29 04:37:04;;;;;;;3.40;2.70;;;6.10;99.90;;;;;;5033742;28;20442;-71
2024/01/29 04:39:33;;;;;;;3.00;1.83;;;6.10;99.90;;;;;;5029711;28;20438;-71
2024/01/29 04:42:01;;;;;;;2.67;2.17;;;6.10;99.90;;;;;;5036860;28;20439;-70
2024/01/29 04:44:28;;;;;;;2.07;1.87;;;6.10;99.90;;;;;;5032925;28;20459;-72
2024/01/29 04:46:55;;;;;;;3.13;1.70;;;6.10;99.90;;;;;;5035987;28;20469;-71
2024/01/29 04:49:22;;;;;;;1.93;1.50;;;6.00;99.90;;;;;;5034475;28;20442;-71
2024/01/29 04:51:48;;;;;;;2.47;2.10;;;6.00;99.90;;;;;;5034831;28;20476;-70
2024/01/29 04:54:15;;;;;;;4.90;4.37;;;6.00;99.90;;;;;;5028178;28;20438;-70
2024/01/29 04:56:42;;;;;;;4.63;2.30;;;5.90;99.90;;;;;;5031295;28;20487;-71
2024/01/29 04:59:10;;;;;;;2.47;2.20;;;5.90;99.90;;;;;;5030324;28;20976;-71
2024/01/29 05:01:37;;;;;;;2.93;2.30;;;5.80;99.90;;;;;;5033664;28;20463;-71
2024/01/29 05:04:04;;;;;;;3.73;2.13;;;5.80;99.90;;;;;;5028194;28;20470;-71
2024/01/29 05:06:31;;;;;;;3.47;2.70;;;5.80;99.90;;;;;;5020643;28;20544;-71
2024/01/29 05:08:58;;;;;;;2.60;1.53;;;5.80;99.90;;;;;;5025119;28;20444;-71
2024/01/29 05:11:24;;;;;;;2.20;1.60;;;5.70;99.90;;;;;;5027094;28;20519;-71
2024/01/29 05:13:53;;;;;;;4.40;2.20;;;5.70;99.90;;;;;;5028191;28;20438;-70
2024/01/29 05:16:21;;;;;;;7.47;3.40;;;5.60;99.90;;;;;;5032820;28;20934;-70
2024/01/29 05:18:49;;;;;;;14.83;5.50;;;5.60;99.90;;;;;;5029770;28;20460;-70
2024/01/29 05:21:17;;;;;;;6.33;5.40;;;5.60;99.90;;;;;;5021320;28;20461;-70
2024/01/29 05:23:44;;;;;;;3.17;2.87;;;5.50;99.90;;;;;;5020228;28;20448;-71
2024/01/29 05:26:11;;;;;;;3.67;2.20;;;5.50;99.90;;;;;;5033593;28;20472;-70
2024/01/29 05:28:38;;;;;;;2.03;1.77;;;5.50;99.90;;;;;;5039097;28;20433;-71
2024/01/29 05:31:04;;;;;;;4.10;2.00;;;5.50;99.90;;;;;;5042166;28;20454;-71
2024/01/29 05:33:32;;;;;;;4.60;2.43;;;5.40;99.90;;;;;;5043123;28;20438;-71
2024/01/29 05:35:59;;;;;;;5.10;3.00;;;5.30;99.90;;;;;;5032833;28;20495;-71
2024/01/29 05:38:26;;;;;;;6.60;3.40;;;5.20;99.90;;;;;;5025410;28;20946;-70
2024/01/29 05:40:52;;;;;;;3.70;2.20;;;5.20;99.90;;;;;;5032017;28;20471;-70
2024/01/29 05:43:19;;;;;;;4.37;3.37;;;5.20;99.90;;;;;;5032194;28;20441;-69
2024/01/29 05:45:47;;;;;;;6.47;4.37;;;5.30;99.90;;;;;;5034381;28;20564;-70
2024/01/29 05:48:14;;;;;;;3.07;2.70;;;5.30;99.90;;;;;;5030660;28;21038;-71
2024/01/29 05:50:42;;;;;;;2.87;2.13;;;5.30;99.90;;;;;;5031827;28;20460;-71
2024/01/29 05:53:10;;;;;;;5.00;3.43;;;5.30;99.90;;;;;;5029754;28;20455;-70
2024/01/29 05:55:37;;;;;;;5.30;2.87;;;5.20;99.90;;;;;;5035147;28;20489;-70
2024/01/29 05:58:04;;;;;;;2.83;2.53;;;5.10;99.90;;;;;;5035818;28;20449;-69
2024/01/29 06:00:30;;;;;;;2.93;2.30;;;5.00;99.90;;;;;;5031797;28;20459;-69
2024/01/29 06:02:57;;;;;;;3.33;2.90;;;5.00;99.90;;;;;;5032389;28;22666;-70
2024/01/29 06:05:24;;;;;;;2.37;2.17;;;5.00;99.90;;;;;;5035777;28;20457;-70
2024/01/29 06:07:54;;;;;;;5.00;2.20;;;5.00;99.90;;;;;;5031795;28;20445;-70
2024/01/29 06:10:21;;;;;;;2.03;1.93;;;4.90;99.90;;;;;;5038510;28;20533;-70
2024/01/29 06:12:48;;;;;;;4.60;3.00;;;4.90;99.90;;;;;;5039681;28;20437;-71
2024/01/29 06:15:15;;;;;;;6.57;3.37;;;4.90;99.90;;;;;;5027137;28;21083;-71
2024/01/29 06:17:42;;;;;;;3.67;2.50;;;4.90;99.90;;;;;;5040228;28;20437;-70
2024/01/29 06:20:15;;;;;;;6.27;3.20;;;5.00;99.90;;;;;;5034030;28;20434;-71
2024/01/29 06:22:42;;;;;;;3.70;3.33;;;5.00;99.90;;;;;;5037899;28;20522;-71
2024/01/29 06:25:10;;;;;;;3.20;2.70;;;5.00;99.90;;;;;;5039507;28;20518;-69
2024/01/29 06:27:37;;;;;;;4.30;2.80;;;5.10;99.90;;;;;;5044307;28;20434;-70
2024/01/29 06:30:05;;;;;;;3.90;3.17;;;5.10;99.90;;;;;;5044118;28;20491;-70
2024/01/29 06:32:31;;;;;;;3.40;2.80;;;5.00;99.90;;;;;;5044357;28;20470;-70
2024/01/29 06:34:58;;;;;;;3.57;2.10;;;5.00;99.90;;;;;;5044992;28;20481;-71
2024/01/29 06:37:26;;;;;;;4.73;2.10;;;5.00;99.90;;;;;;5034378;28;20457;-71
2024/01/29 06:39:54;;;;;;;3.20;2.37;;;4.90;99.90;;;;;;5041075;28;20467;-70
2024/01/29 06:42:22;;;;;;;2.77;2.00;;;4.90;99.90;;;;;;5037776;28;20463;-70
2024/01/29 06:44:49;;;;;;;4.03;3.37;;;4.90;99.90;;;;;;5043404;28;20763;-70
2024/01/29 06:47:17;;;;;;;5.70;2.43;;;4.90;99.90;;;;;;5043553;28;20495;-70
2024/01/29 06:49:44;;;;;;;4.03;3.30;;;4.80;99.90;;;;;;5044052;28;20445;-71
2024/01/29 06:52:11;;;;;;;2.33;1.93;;;4.80;99.90;;;;;;5035461;28;20455;-71
2024/01/29 06:54:37;;;;;;;5.70;2.23;;;4.80;99.90;;;;;;5041954;28;20763;-70
2024/01/29 06:57:04;;;;;;;10.70;2.90;;;4.90;99.90;;;;;;5042619;28;20487;-71
2024/01/29 06:59:35;;;;;;;14.33;3.20;;;4.90;99.90;;;;;;5044172;28;20453;-71
2024/01/29 07:02:04;;;;;;;5.50;2.60;;;4.90;99.90;;;;;;5043927;28;20437;-71
2024/01/29 07:04:33;;;;;;;5.63;2.30;;;4.90;99.90;;;;;;5038535;28;20430;-71
2024/01/29 07:07:00;;;;;;;2.80;2.10;;;5.00;99.90;;;;;;5042105;28;20577;-72
2024/01/29 07:09:27;;;;;;;2.53;2.33;;;5.00;99.90;;;;;;5040004;28;20606;-70
2024/01/29 07:11:53;;;;;;;2.37;1.90;;;5.00;99.90;;;;;;5034051;28;20466;-70
2024/01/29 07:14:21;;;;;;;3.73;2.10;;;5.20;99.90;;;;;;5042800;28;20467;-71
2024/01/29 07:16:49;;;;;;;2.20;1.60;;;5.40;99.90;;;;;;5041396;28;20495;-70
2024/01/29 07:19:21;;;;;;;2.70;2.40;;;5.50;99.90;;;;;;5041065;28;21009;-71
2024/01/29 07:21:49;;;;;;;2.27;1.67;;;5.60;99.90;;;;;;5040529;28;20808;-71
2024/01/29 07:24:15;;;;;;;4.50;1.93;;;5.80;99.90;;;;;;5043383;28;20933;-71
2024/01/29 07:26:42;;;;;;;2.70;1.93;;;5.90;99.90;;;;;;5042634;28;20806;-71
2024/01/29 07:29:09;;;;;;;1.67;1.57;;;5.90;99.90;;;;;;5040327;28;20446;-71
2024/01/29 07:31:36;;;;;;;5.13;2.70;;;6.00;99.90;;;;;;5040159;28;20476;-70
2024/01/29 07:34:04;;;;;;;2.37;2.10;;;6.00;99.90;;;;;;5040525;28;20434;-70
2024/01/29 07:36:31;;;;;;;3.73;2.20;;;5.90;99.90;;;;;;5040989;28;20486;-71
2024/01/29 07:38:57;;;;;;;2.20;1.70;;;5.90;99.90;;;;;;5043549;28;20446;-70
2024/01/29 07:41:26;;;;;;;3.43;2.70;;;5.90;99.90;;;;;;5037465;28;20824;-70
2024/01/29 07:43:53;;;;;;;4.60;2.87;;;6.00;99.90;;;;;;5042571;28;20460;-71
2024/01/29 07:46:19;;;;;;;11.20;2.60;;;6.00;99.90;;;;;;5046321;28;20475;-70
2024/01/29 07:48:46;;;;;;;6.40;3.73;;;6.10;99.90;;;;;;5041837;28;20811;-71
2024/01/29 07:51:14;;;;;;;11.70;4.20;;;6.20;99.90;;;;;;5046239;28;20521;-70
2024/01/29 07:53:41;;;;;;;3.40;2.53;;;6.30;99.90;;;;;;5046181;28;20434;-70
2024/01/29 07:56:08;;;;;;;4.00;2.63;;;6.50;99.90;;;;;;5042581;28;21061;-70
2024/01/29 07:58:34;;;;;;;3.33;1.90;;;6.60;99.90;;;;;;5044983;28;20482;-71
2024/01/29 08:01:01;;;;;;;2.37;1.70;;;6.70;99.90;;;;;;5038112;28;20473;-71
2024/01/29 08:03:28;;;;;;;6.70;1.57;;;6.70;99.90;;;;;;5039954;28;20854;-71
2024/01/29 08:05:55;;;;;;;4.10;2.70;;;6.80;99.90;;;;;;5042152;28;20466;-70
2024/01/29 08:08:23;;;;;;;6.93;3.00;;;6.60;99.90;;;;;;5042851;28;20430;-70
2024/01/29 08:10:49;;;;;;;9.33;3.10;;;6.70;99.90;;;;;;5047264;28;20456;-70
2024/01/29 08:13:16;;;;;;;4.40;2.43;;;6.90;99.90;;;;;;5035323;28;20458;-71
2024/01/29 08:15:43;;;;;;;4.47;2.30;;;7.00;99.90;;;;;;5043475;28;21005;-71
2024/01/29 08:18:10;;;;;;;6.00;3.57;;;7.00;99.90;;;;;;5042717;28;20491;-71
2024/01/29 08:20:37;;;;;;;4.00;2.90;;;7.20;99.90;;;;;;5042763;28;20469;-71
2024/01/29 08:23:04;;;;;;;5.00;3.13;;;7.50;99.90;;;;;;5035001;28;20488;-71
2024/01/29 08:25:32;;;;;;;6.00;2.90;;;7.90;99.90;;;;;;5043054;28;20461;-70
2024/01/29 08:27:59;;;;;;;5.87;3.13;;;8.10;99.90;;;;;;5040816;28;20450;-70
2024/01/29 08:30:26;;;;;;;7.40;2.30;;;8.30;99.90;;;;;;5039978;28;20826;-71
2024/01/29 08:32:52;;;;;;;3.97;2.27;;;8.60;99.90;;;;;;5037990;28;20570;-70
2024/01/29 08:35:19;;;;;;;3.23;2.03;;;8.70;99.90;;;;;;5041314;28;20487;-70
2024/01/29 08:37:46;;;;;;;3.10;2.30;;;8.80;99.90;;;;;;5042327;28;20502;-71
2024/01/29 08:40:13;;;;;;;3.27;2.83;;;9.10;99.90;;;;;;5041488;28;20582;-72
2024/01/29 08:42:41;;;;;;;2.77;1.83;;;9.30;99.90;;;;;;5040343;28;20449;-71
2024/01/29 08:45:08;;;;;;;2.27;2.07;;;9.90;99.90;;;;;;5040760;28;20487;-71
2024/01/29 08:47:35;;;;;;;4.30;3.40;;;10.60;99.90;;;;;;5043129;28;20555;-71
2024/01/29 08:50:02;;;;;;;4.17;1.80;;;11.30;99.90;;;;;;5038865;28;20545;-69
2024/01/29 08:52:29;;;;;;;5.93;2.67;;;11.90;99.90;;;;;;5039759;28;20445;-70
2024/01/29 08:54:56;;;;;;;7.37;2.50;;;12.00;99.90;;;;;;5036739;28;20937;-71
2024/01/29 08:57:22;;;;;;;3.90;2.43;;;12.50;99.90;;;;;;5043171;28;20590;-70
2024/01/29 08:59:51;;;;;;;4.60;2.80;;;13.20;99.90;;;;;;5038198;28;21056;-71
2024/01/29 09:02:17;;;;;;;2.63;2.43;;;13.90;99.90;;;;;;5034963;28;20940;-70
2024/01/29 09:04:46;;;;;;;3.13;2.43;;;14.40;99.90;;;;;;5037045;28;20888;-70
2024/01/29 09:07:17;;;;;;;3.03;1.60;;;15.00;99.90;;;;;;5034231;28;20835;-72
2024/01/29 09:09:44;;;;;;;2.47;2.27;;;15.30;99.60;;;;;;5042045;28;20523;-70
2024/01/29 09:12:11;;;;;;;2.40;2.00;;;15.20;99.00;;;;;;5039441;28;20464;-72
2024/01/29 09:14:38;;;;;;;2.40;1.93;;;15.40;98.30;;;;;;5039726;28;20455;-72
2024/01/29 09:17:06;;;;;;;2.53;2.30;;;15.50;97.40;;;;;;5041378;28;20919;-71
2024/01/29 09:19:33;;;;;;;4.17;2.37;;;15.40;97.30;;;;;;5033796;28;20467;-70
2024/01/29 09:21:59;;;;;;;4.50;2.70;;;15.40;97.60;;;;;;5034960;28;20474;-70
2024/01/29 09:24:26;;;;;;;3.60;2.37;;;15.10;97.20;;;;;;5035487;28;20535;-70
2024/01/29 09:26:53;;;;;;;2.67;2.00;;;14.80;97.40;;;;;;5035752;28;20487;-71
2024/01/29 09:29:19;;;;;;;3.03;2.43;;;14.40;97.60;;;;;;5038739;28;20472;-70
2024/01/29 09:31:46;;;;;;;3.17;2.30;;;14.00;98.20;;;;;;5034221;28;20547;-71
2024/01/29 09:34:14;;;;;;;2.70;2.50;;;14.10;98.10;;;;;;5042870;28;20460;-71
2024/01/29 09:36:41;;;;;;;7.57;2.43;;;14.40;98.20;;;;;;5039495;28;20494;-70
2024/01/29 09:39:08;;;;;;;3.87;2.73;;;14.70;97.70;;;;;;5041184;28;20459;-71
2024/01/29 09:41:35;;;;;;;3.27;2.97;;;15.20;97.80;;;;;;5034721;28;20849;-71
2024/01/29 09:44:05;;;;;;;2.90;2.03;;;15.80;96.40;;;;;;5040556;28;20460;-71
2024/01/29 09:46:34;;;;;;;3.70;3.03;;;15.60;95.60;;;;;;5039867;28;20482;-71
2024/01/29 09:49:01;;;;;;;5.63;2.33;;;15.10;96.70;;;;;;5035649;28;21316;-70
2024/01/29 09:51:30;;;;;;;3.00;2.43;;;14.70;96.80;;;;;;5039287;28;20455;-73
2024/01/29 09:53:58;;;;;;;6.57;2.50;;;14.40;97.40;;;;;;5042972;28;20463;-71
2024/01/29 09:56:25;;;;;;;9.53;2.57;;;14.10;97.70;;;;;;5039327;28;20517;-71
2024/01/29 09:58:52;;;;;;;6.00;2.60;;;13.80;98.20;;;;;;5042843;28;21028;-71
2024/01/29 10:01:19;;;;;;;3.00;2.23;;;13.70;98.30;;;;;;5042256;28;20531;-71
2024/01/29 10:03:46;;;;;;;4.80;2.57;;;13.80;98.80;;;;;;5034639;28;20463;-71
2024/01/29 10:06:13;;;;;;;3.60;2.80;;;13.70;99.00;;;;;;5034646;28;20460;-70
2024/01/29 10:08:43;;;;;;;4.00;3.20;;;13.80;99.90;;;;;;5039918;28;20460;-72
2024/01/29 10:11:10;;;;;;;2.97;1.93;;;14.80;99.20;;;;;;5036622;28;20459;-71
2024/01/29 10:13:37;;;;;;;3.07;2.40;;;15.90;98.10;;;;;;5038311;28;21101;-71
2024/01/29 10:16:04;;;;;;;2.97;2.67;;;16.70;96.70;;;;;;5037596;28;20479;-71
2024/01/29 10:18:31;;;;;;;4.00;2.70;;;17.20;95.30;;;;;;5040223;28;20487;-71
2024/01/29 10:21:04;;;;;;;3.67;2.83;;;17.10;95.00;;;;;;5040163;28;20499;-70
2024/01/29 10:23:31;;;;;;;2.80;2.50;;;16.70;94.70;;;;;;5041613;28;20563;-71
2024/01/29 10:26:00;;;;;;;4.40;2.73;;;16.30;95.10;;;;;;5037772;28;20515;-71
2024/01/29 10:28:27;;;;;;;3.10;2.53;;;16.70;95.60;;;;;;5041455;28;20452;-72
2024/01/29 10:30:55;;;;;;;6.00;3.17;;;17.50;94.20;;;;;;5039259;28;20488;-71
2024/01/29 10:33:22;;;;;;;5.93;3.60;;;17.80;94.20;;;;;;5039496;28;20467;-70
2024/01/29 10:35:49;;;;;;;7.47;3.60;;;17.90;93.30;;;;;;5038791;28;20569;-70
2024/01/29 10:38:21;;;;;;;7.63;2.73;;;17.50;93.10;;;;;;5041166;28;20484;-70
2024/01/29 10:40:50;;;;;;;7.83;2.87;;;17.00;93.60;;;;;;5040464;28;20535;-70
2024/01/29 10:43:19;;;;;;;3.87;2.50;;;17.20;93.70;;;;;;5037971;28;20459;-71
2024/01/29 10:45:50;;;;;;;10.00;3.57;;;17.70;93.50;;;;;;5038054;28;21224;-71
2024/01/29 10:48:21;;;;;;;5.30;2.93;;;18.30;93.40;;;;;;5036847;28;20470;-71
2024/01/29 10:50:48;;;;;;;3.33;2.33;;;19.30;92.50;;;;;;5042375;28;20460;-71
2024/01/29 10:53:16;;;;;;;5.07;3.40;;;19.60;91.50;;;;;;5041013;28;20554;-71
2024/01/29 10:55:44;;;;;;;4.63;2.80;;;19.70;91.30;;;;;;5045398;28;20498;-72
2024/01/29 10:58:13;;;;;;;6.97;2.70;;;19.60;91.40;;;;;;5043668;28;20483;-71
2024/01/29 11:00:43;;;;;;;6.00;3.13;;;20.10;90.90;;;;;;5046504;28;20459;-70
2024/01/29 11:03:12;;;;;;;6.07;2.73;;;20.20;90.20;;;;;;5045978;28;20468;-72
2024/01/29 11:05:41;;;;;;;3.30;2.00;;;19.70;90.40;;;;;;5045205;28;20487;-71
2024/01/29 11:08:13;;;;;;;2.77;2.07;;;19.40;90.40;;;;;;5048243;28;20605;-71
2024/01/29 11:10:40;;;;;;;3.03;1.90;;;19.20;90.70;;;;;;5040758;28;20573;-71
2024/01/29 11:13:09;;;;;;;3.57;3.27;;;19.30;90.60;;;;;;5044759;28;20463;-70
2024/01/29 11:15:36;;;;;;;3.73;2.47;;;19.10;91.50;;;;;;5038981;28;20518;-71
2024/01/29 11:18:05;;;;;;;3.67;3.07;;;19.40;91.50;;;;;;5044995;28;20506;-71
2024/01/29 11:20:34;;;;;;;4.60;2.83;;;20.10;90.70;;;;;;5043439;28;20455;-71
2024/01/29 11:23:03;;;;;;;4.90;2.50;;;20.10;90.40;;;;;;5041134;28;20460;-71
2024/01/29 11:25:31;;;;;;;4.47;2.57;;;20.20;90.10;;;;;;5041343;28;20490;-70
2024/01/29 11:28:00;;;;;;;5.43;2.60;;;20.50;90.00;;;;;;5038973;28;20552;-71
2024/01/29 11:30:28;;;;;;;4.70;2.57;;;20.80;89.20;;;;;;5043312;28;20546;-71
2024/01/29 11:33:09;;;;;;;4.53;2.50;;;21.20;87.60;;;;;;5040399;28;20476;-71
2024/01/29 11:35:37;;;;;;;3.67;3.13;;;20.60;88.20;;;;;;5045202;28;20801;-70
2024/01/29 11:38:08;;;;;;;5.20;2.27;;;20.30;88.80;;;;;;5046980;28;20486;-70
2024/01/29 11:40:38;;;;;;;2.77;2.30;;;20.30;88.40;;;;;;5043528;28;20471;-70
2024/01/29 11:43:11;;;;;;;6.97;2.93;;;20.30;90.00;;;;;;5039316;28;20463;-71
2024/01/29 11:45:38;;;;;;;4.67;3.40;;;20.40;89.00;;;;;;5029190;28;20834;-71
2024/01/29 11:48:10;;;;;;;4.90;2.73;;;20.40;90.00;;;;;;5040835;28;20472;-70
2024/01/29 11:50:39;;;;;;;10.20;3.90;;;20.60;88.70;;;;;;5036677;28;20475;-72
2024/01/29 11:53:12;;;;;;;4.83;2.67;;;20.00;90.00;;;;;;5044379;28;20460;-71
2024/01/29 11:55:39;;;;;;;5.50;3.23;;;20.10;90.20;;;;;;5043966;28;20475;-71
2024/01/29 11:58:11;;;;;;;4.00;3.20;;;20.30;89.90;;;;;;5042839;28;20483;-70
2024/01/29 12:00:38;;;;;;;3.20;2.17;;;20.60;88.70;;;;;;5043596;28;20474;-71
2024/01/29 12:03:06;;;;;;;2.97;2.70;;;20.70;89.90;;;;;;5043200;28;20554;-71
2024/01/29 12:05:32;;;;;;;6.47;3.33;;;20.80;90.00;;;;;;5037820;28;20622;-72
2024/01/29 12:08:02;;;;;;;4.23;2.70;;;20.50;90.00;;;;;;5046799;28;20462;-71
2024/01/29 12:10:29;;;;;;;3.90;2.57;;;21.00;90.50;;;;;;5044212;28;20460;-70
2024/01/29 12:12:56;;;;;;;2.87;2.60;;;21.10;90.00;;;;;;5039147;28;20554;-71
2024/01/29 12:15:23;;;;;;;3.67;2.90;;;21.10;90.00;;;;;;5034335;28;20490;-71
2024/01/29 12:17:51;;;;;;;4.40;2.77;;;20.30;91.40;;;;;;5043687;28;20590;-70
2024/01/29 12:20:17;;;;;;;2.70;2.33;;;20.10;91.70;;;;;;5040207;28;20834;-71
2024/01/29 12:22:45;;;;;;;4.33;3.20;;;20.50;91.90;;;;;;5042804;28;21289;-71
2024/01/29 12:25:13;;;;;;;3.60;3.23;;;20.80;92.00;;;;;;5038007;28;20490;-71
2024/01/29 12:27:40;;;;;;;5.77;3.23;;;21.50;91.90;;;;;;5045024;28;20962;-71
2024/01/29 12:30:11;;;;;;;5.63;3.03;;;21.90;90.70;;;;;;5044337;28;20483;-72
2024/01/29 12:32:39;;;;;;;3.27;2.97;;;21.90;90.60;;;;;;5045240;28;20463;-71
2024/01/29 12:35:23;;;;;;;4.73;3.20;;;21.90;90.30;;;;;;5044737;28;21026;-70
2024/01/29 12:37:50;;;;;;;4.73;2.90;;;21.70;90.10;;;;;;5045714;28;20495;-72
2024/01/29 12:40:19;;;;;;;2.97;2.67;;;21.10;90.30;;;;;;5047504;28;20460;-71
2024/01/29 12:42:45;;;;;;;8.03;3.17;;;21.00;91.20;;;;;;5042821;28;20459;-70
2024/01/29 12:45:17;;;;;;;3.53;2.60;;;21.60;90.90;;;;;;5039073;28;20481;-71
2024/01/29 12:47:44;;;;;;;3.10;2.47;;;21.70;90.40;;;;;;5044799;28;20464;-71
2024/01/29 12:50:15;;;;;;;6.00;3.23;;;21.60;90.40;;;;;;5042346;28;20950;-70
2024/01/29 12:52:42;;;;;;;4.03;3.07;;;21.60;90.70;;;;;;5044938;28;20475;-70
2024/01/29 12:55:09;;;;;;;4.13;3.73;;;21.60;90.90;;;;;;5038115;28;20495;-71
2024/01/29 12:57:37;;;;;;;4.27;2.73;;;22.00;90.40;;;;;;5044295;28;20460;-70